createdAt,value
2022-10-25T00:02:26.361Z,0.40
2022-10-25T00:04:53.777Z,0.40
2022-10-25T00:07:21.188Z,0.40
2022-10-25T00:09:48.712Z,0.40
2022-10-25T00:12:16.048Z,0.68
2022-10-25T00:14:43.475Z,0.63
2022-10-25T00:17:11.109Z,0.30
2022-10-25T00:19:38.573Z,0.40
2022-10-25T00:22:05.965Z,0.40
2022-10-25T00:24:33.310Z,0.30
2022-10-25T00:27:00.740Z,0.40
2022-10-25T00:29:28.143Z,0.95
2022-10-25T00:31:55.494Z,0.60
2022-10-25T00:34:22.958Z,0.52
2022-10-25T00:36:50.371Z,0.52
2022-10-25T00:39:17.787Z,0.30
2022-10-25T00:41:45.296Z,0.60
2022-10-25T00:44:31.612Z,0.65
2022-10-25T00:46:59.262Z,0.50
2022-10-25T00:49:26.728Z,0.60
2022-10-25T00:51:55.325Z,0.57
2022-10-25T00:54:26.010Z,0.82
2022-10-25T00:56:53.929Z,0.40
2022-10-25T00:59:24.591Z,0.50
2022-10-25T01:01:54.530Z,1.23
2022-10-25T01:04:23.587Z,0.50
2022-10-25T01:06:52.053Z,0.55
2022-10-25T01:09:21.078Z,0.55
2022-10-25T01:11:48.552Z,0.50
2022-10-25T01:14:16.998Z,0.60
2022-10-25T01:16:59.482Z,0.57
2022-10-25T01:19:36.124Z,0.43
2022-10-25T01:22:16.590Z,0.45
2022-10-25T01:25:03.016Z,0.47
2022-10-25T01:27:48.262Z,0.30
2022-10-25T01:30:15.864Z,0.43
2022-10-25T01:32:58.576Z,1.10
2022-10-25T01:35:34.094Z,0.73
2022-10-25T01:38:01.602Z,0.75
2022-10-25T01:40:47.849Z,0.63
2022-10-25T01:43:23.025Z,0.80
2022-10-25T01:48:23.846Z,0.93
2022-10-25T01:50:51.247Z,0.57
2022-10-25T01:53:18.730Z,1.88
2022-10-25T01:55:57.741Z,0.60
2022-10-25T01:58:43.832Z,0.57
2022-10-25T02:01:28.777Z,0.40
2022-10-25T02:04:03.843Z,0.65
2022-10-25T02:06:38.100Z,0.80
2022-10-25T02:09:21.632Z,1.57
2022-10-25T02:11:50.586Z,1.05
2022-10-25T02:14:23.442Z,0.95
2022-10-25T02:16:53.745Z,1.13
2022-10-25T02:19:24.589Z,0.90
2022-10-25T02:21:53.047Z,0.80
2022-10-25T02:24:24.429Z,0.73
2022-10-25T02:26:52.692Z,0.70
2022-10-25T02:29:20.781Z,0.80
2022-10-25T02:31:48.383Z,0.80
2022-10-25T02:34:15.766Z,0.73
2022-10-25T02:36:43.388Z,0.80
2022-10-25T02:39:10.777Z,0.95
2022-10-25T02:41:38.107Z,1.00
2022-10-25T02:44:05.576Z,0.93
2022-10-25T02:46:32.967Z,1.20
2022-10-25T02:49:00.593Z,1.05
2022-10-25T02:51:27.985Z,0.80
2022-10-25T02:53:55.597Z,0.90
2022-10-25T02:56:23.688Z,0.90
2022-10-25T02:58:52.510Z,0.80
2022-10-25T03:01:21.526Z,1.05
2022-10-25T03:03:49.283Z,0.90
2022-10-25T03:06:16.909Z,0.85
2022-10-25T03:08:45.188Z,0.70
2022-10-25T03:11:13.092Z,0.93
2022-10-25T03:13:40.695Z,1.05
2022-10-25T03:16:08.387Z,1.35
2022-10-25T03:18:35.779Z,0.80
2022-10-25T03:21:03.519Z,1.00
2022-10-25T03:23:31.359Z,0.80
2022-10-25T03:25:59.748Z,0.75
2022-10-25T03:28:30.465Z,1.05
2022-10-25T03:30:58.211Z,1.88
2022-10-25T03:33:26.052Z,1.23
2022-10-25T03:35:54.634Z,1.55
2022-10-25T03:38:22.358Z,1.33
2022-10-25T03:40:49.773Z,1.20
2022-10-25T03:43:17.352Z,1.50
2022-10-25T03:45:45.005Z,2.30
2022-10-25T03:48:12.593Z,1.60
2022-10-25T03:50:40.316Z,1.70
2022-10-25T03:55:36.491Z,1.38
2022-10-25T03:58:03.883Z,1.70
2022-10-25T04:00:31.316Z,1.52
2022-10-25T04:03:02.012Z,2.03
2022-10-25T04:05:30.724Z,1.33
2022-10-25T04:07:58.119Z,1.60
2022-10-25T04:10:25.723Z,1.38
2022-10-25T04:12:54.403Z,1.83
2022-10-25T04:15:22.841Z,1.60
2022-10-25T04:17:51.109Z,1.40
2022-10-25T04:20:19.185Z,1.42
2022-10-25T04:22:46.558Z,1.90
2022-10-25T04:25:13.981Z,1.50
2022-10-25T04:27:41.343Z,1.10
2022-10-25T04:30:09.079Z,1.55
2022-10-25T04:32:36.512Z,1.52
2022-10-25T04:35:03.952Z,1.30
2022-10-25T04:37:31.328Z,1.42
2022-10-25T04:39:58.732Z,2.10
2022-10-25T04:42:26.101Z,2.00
2022-10-25T04:44:53.488Z,1.25
2022-10-25T04:47:21.035Z,1.40
2022-10-25T04:49:48.403Z,1.85
2022-10-25T04:52:15.825Z,2.13
2022-10-25T04:54:43.329Z,1.95
2022-10-25T04:57:10.731Z,1.80
2022-10-25T04:59:41.166Z,1.77
2022-10-25T05:02:08.828Z,2.08
2022-10-25T05:04:36.241Z,1.50
2022-10-25T05:07:03.630Z,2.53
2022-10-25T05:09:30.969Z,2.30
2022-10-25T05:11:58.385Z,2.13
2022-10-25T05:14:25.798Z,1.65
2022-10-25T05:16:53.230Z,1.67
2022-10-25T05:19:20.618Z,2.38
2022-10-25T05:21:48.189Z,2.17
2022-10-25T05:24:15.655Z,1.52
2022-10-25T05:26:43.195Z,1.92
2022-10-25T05:29:11.909Z,2.17
2022-10-25T05:31:40.685Z,1.98
2022-10-25T05:34:08.151Z,1.27
2022-10-25T05:36:35.550Z,1.80
2022-10-25T05:39:03.002Z,1.80
2022-10-25T05:41:33.333Z,1.73
2022-10-25T05:44:03.661Z,1.85
2022-10-25T05:46:31.495Z,1.38
2022-10-25T05:48:59.731Z,1.67
2022-10-25T05:51:36.796Z,1.60
2022-10-25T05:54:14.515Z,1.92
2022-10-25T05:56:42.642Z,1.45
2022-10-25T05:59:11.281Z,2.40
2022-10-25T06:01:40.145Z,1.95
2022-10-25T06:04:07.966Z,1.60
2022-10-25T06:06:35.936Z,1.45
2022-10-25T06:09:03.809Z,1.75
2022-10-25T06:11:31.489Z,2.08
2022-10-25T06:13:58.894Z,1.65
2022-10-25T06:16:26.617Z,1.60
2022-10-25T06:18:54.796Z,1.90
2022-10-25T06:21:24.043Z,2.15
2022-10-25T06:23:52.150Z,1.83
2022-10-25T06:26:27.284Z,1.70
2022-10-25T06:31:22.251Z,1.98
2022-10-25T06:33:49.872Z,1.35
2022-10-25T06:36:18.678Z,1.70
2022-10-25T06:38:46.537Z,1.83
2022-10-25T06:41:14.922Z,2.00
2022-10-25T06:43:42.284Z,1.80
2022-10-25T06:46:10.675Z,1.90
2022-10-25T06:48:38.392Z,1.60
2022-10-25T06:51:06.766Z,1.35
2022-10-25T06:53:34.097Z,1.70
2022-10-25T06:56:04.685Z,1.80
2022-10-25T06:58:33.241Z,2.05
2022-10-25T07:01:08.385Z,2.15
2022-10-25T07:03:35.921Z,2.63
2022-10-25T07:06:06.474Z,1.90
2022-10-25T07:08:34.262Z,2.00
2022-10-25T07:11:02.042Z,2.53
2022-10-25T07:13:29.475Z,1.70
2022-10-25T07:16:02.578Z,2.05
2022-10-25T07:18:30.680Z,2.10
2022-10-25T07:21:05.740Z,1.60
2022-10-25T07:26:00.934Z,1.38
2022-10-25T07:28:28.543Z,1.70
2022-10-25T07:30:55.929Z,2.17
2022-10-25T07:33:23.581Z,2.28
2022-10-25T07:36:06.457Z,1.92
2022-10-25T07:38:37.918Z,2.22
2022-10-25T07:41:05.554Z,1.60
2022-10-25T07:43:33.107Z,1.83
2022-10-25T07:46:00.603Z,2.00
2022-10-25T07:48:28.282Z,7.30
2022-10-25T07:50:55.642Z,2.30
2022-10-25T07:53:23.267Z,2.28
2022-10-25T07:55:51.993Z,1.73
2022-10-25T07:58:19.685Z,2.33
2022-10-25T08:00:48.099Z,2.60
2022-10-25T08:03:16.443Z,3.95
2022-10-25T08:05:49.515Z,2.53
2022-10-25T08:08:17.115Z,2.10
2022-10-25T08:10:44.810Z,3.50
2022-10-25T08:13:12.543Z,3.45
2022-10-25T08:15:41.116Z,3.28
2022-10-25T08:18:09.797Z,2.40
2022-10-25T08:21:00.565Z,1.88
2022-10-25T08:23:25.622Z,4.13
2022-10-25T08:25:53.167Z,2.70
2022-10-25T08:28:20.945Z,2.10
2022-10-25T08:30:48.325Z,2.08
2022-10-25T08:33:15.749Z,2.42
2022-10-25T08:35:43.221Z,1.90
2022-10-25T08:38:10.853Z,2.28
2022-10-25T08:40:47.668Z,2.10
2022-10-25T08:43:18.284Z,2.30
2022-10-25T08:45:54.536Z,1.98
2022-10-25T08:48:24.281Z,2.00
2022-10-25T08:50:54.053Z,1.70
2022-10-25T08:53:24.232Z,2.20
2022-10-25T08:56:05.411Z,2.05
2022-10-25T08:58:45.721Z,2.40
2022-10-25T09:01:15.184Z,2.88
2022-10-25T09:03:42.789Z,2.40
2022-10-25T09:06:25.587Z,2.35
2022-10-25T09:08:53.087Z,2.40
2022-10-25T09:11:20.443Z,2.50
2022-10-25T09:13:58.780Z,2.40
2022-10-25T09:16:44.944Z,2.97
2022-10-25T09:19:23.882Z,2.22
2022-10-25T09:21:54.072Z,3.10
2022-10-25T09:24:24.272Z,6.80
2022-10-25T09:26:57.168Z,2.90
2022-10-25T09:29:26.546Z,1.80
2022-10-25T09:31:56.967Z,1.95
2022-10-25T09:34:24.624Z,2.53
2022-10-25T09:36:58.341Z,1.33
2022-10-25T09:39:37.469Z,1.45
2022-10-25T09:42:07.807Z,1.65
2022-10-25T09:44:35.181Z,1.40
2022-10-25T09:47:03.507Z,2.08
2022-10-25T09:49:34.175Z,1.70
2022-10-25T09:52:01.600Z,1.65
2022-10-25T09:54:45.562Z,1.77
2022-10-25T09:57:12.961Z,1.90
2022-10-25T09:59:40.411Z,1.70
2022-10-25T10:02:10.928Z,1.38
2022-10-25T10:04:39.732Z,1.90
2022-10-25T10:07:15.431Z,1.70
2022-10-25T10:09:45.948Z,1.77
2022-10-25T10:12:19.329Z,1.95
2022-10-25T10:14:51.788Z,2.45
2022-10-25T10:17:19.361Z,2.00
2022-10-25T10:20:06.999Z,1.75
2022-10-25T10:22:34.607Z,2.20
2022-10-25T10:25:02.246Z,2.22
2022-10-25T10:27:29.831Z,2.25
2022-10-25T10:29:59.017Z,1.90
2022-10-25T10:32:55.059Z,2.03
2022-10-25T10:35:35.332Z,1.85
2022-10-25T10:38:20.817Z,1.95
2022-10-25T10:43:31.903Z,2.15
2022-10-25T10:46:03.558Z,3.05
2022-10-25T10:48:36.661Z,2.00
2022-10-25T10:51:15.454Z,2.28
2022-10-25T10:53:53.667Z,1.73
2022-10-25T10:56:23.617Z,1.80
2022-10-25T10:58:53.698Z,1.75
2022-10-25T11:01:33.684Z,1.92
2022-10-25T11:04:01.691Z,1.20
2022-10-25T11:06:30.859Z,1.60
2022-10-25T11:09:14.582Z,1.70
2022-10-25T11:11:42.458Z,1.10
2022-10-25T11:14:17.269Z,1.30
2022-10-25T11:16:49.182Z,1.38
2022-10-25T11:19:25.823Z,1.60
2022-10-25T11:22:05.599Z,1.65
2022-10-25T11:24:42.086Z,1.65
2022-10-25T11:27:21.699Z,1.75
2022-10-25T11:30:07.720Z,1.27
2022-10-25T11:32:59.271Z,1.73
2022-10-25T11:35:29.735Z,1.92
2022-10-25T11:38:04.185Z,1.83
2022-10-25T11:40:33.728Z,2.15
2022-10-25T11:43:19.148Z,1.52
2022-10-25T11:48:29.516Z,1.70
2022-10-25T11:51:15.637Z,1.58
2022-10-25T11:53:49.431Z,1.83
2022-10-25T11:56:35.391Z,1.30
2022-10-25T11:59:02.872Z,1.27
2022-10-25T12:01:35.958Z,1.75
2022-10-25T12:04:03.422Z,1.55
2022-10-25T12:06:33.676Z,1.45
2022-10-25T12:09:19.829Z,1.95
2022-10-25T12:11:56.775Z,2.08
2022-10-25T12:14:29.251Z,1.67
2022-10-25T12:16:57.963Z,1.92
2022-10-25T12:19:27.966Z,1.63
2022-10-25T12:22:04.545Z,2.05
2022-10-25T12:24:42.374Z,1.63
2022-10-25T12:27:10.984Z,1.70
2022-10-25T12:29:43.605Z,1.50
2022-10-25T12:32:31.979Z,1.52
2022-10-25T12:35:00.964Z,1.58
2022-10-25T12:37:39.191Z,1.67
2022-10-25T12:40:07.568Z,1.50
2022-10-25T12:43:01.545Z,1.35
2022-10-25T12:45:37.961Z,1.60
2022-10-25T12:48:17.495Z,1.67
2022-10-25T12:50:54.475Z,1.73
2022-10-25T12:53:34.325Z,1.65
2022-10-25T12:56:03.143Z,1.60
2022-10-25T12:58:42.887Z,1.35
2022-10-25T13:01:16.725Z,1.60
2022-10-25T13:03:47.301Z,1.73
2022-10-25T13:06:35.368Z,1.67
2022-10-25T13:09:07.473Z,1.60
2022-10-25T13:11:36.485Z,1.90
2022-10-25T13:14:04.690Z,2.30
2022-10-25T13:16:33.301Z,1.83
2022-10-25T13:19:25.852Z,1.40
2022-10-25T13:22:11.268Z,2.08
2022-10-25T13:27:19.050Z,1.55
2022-10-25T13:30:01.775Z,1.90
2022-10-25T13:32:39.398Z,1.90
2022-10-25T13:35:26.835Z,1.20
2022-10-25T13:37:55.072Z,1.60
2022-10-25T13:40:27.077Z,1.80
2022-10-25T13:43:02.587Z,1.30
2022-10-25T13:45:33.565Z,1.90
2022-10-25T13:48:08.774Z,1.60
2022-10-25T13:53:03.465Z,1.52
2022-10-25T13:55:37.407Z,2.10
2022-10-25T13:58:25.658Z,1.60
2022-10-25T14:00:54.601Z,1.83
2022-10-25T14:03:25.923Z,1.70
2022-10-25T14:05:56.482Z,1.65
2022-10-25T14:08:41.466Z,1.83
2022-10-25T14:11:11.252Z,1.73
2022-10-25T14:13:51.822Z,1.95
2022-10-25T14:16:23.652Z,1.85
2022-10-25T14:18:52.477Z,1.95
2022-10-25T14:21:20.633Z,1.95
2022-10-25T14:23:50.827Z,1.90
2022-10-25T14:26:20.142Z,2.28
2022-10-25T14:28:48.204Z,1.90
2022-10-25T14:31:19.434Z,2.75
2022-10-25T14:33:53.896Z,3.95
2022-10-25T14:36:29.220Z,1.95
2022-10-25T14:38:58.104Z,1.90
2022-10-25T14:41:27.215Z,2.00
2022-10-25T14:43:55.156Z,2.22
2022-10-25T14:46:23.636Z,1.70
2022-10-25T14:48:54.336Z,1.70
2022-10-25T14:51:26.616Z,1.90
2022-10-25T15:00:26.268Z,2.10
2022-10-25T15:02:59.541Z,2.30
2022-10-25T15:05:26.974Z,1.90
2022-10-25T15:07:58.513Z,2.13
2022-10-25T15:10:41.271Z,1.80
2022-10-25T15:13:14.751Z,2.10
2022-10-25T15:15:46.933Z,2.78
2022-10-25T15:18:34.249Z,2.70
2022-10-25T15:21:10.538Z,2.35
2022-10-25T15:23:39.163Z,2.08
2022-10-25T15:26:25.194Z,2.03
2022-10-25T15:28:57.361Z,1.90
2022-10-25T15:31:28.629Z,1.80
2022-10-25T15:33:57.284Z,2.05
2022-10-25T15:36:26.308Z,1.98
2022-10-25T15:39:16.625Z,1.50
2022-10-25T15:41:43.175Z,2.28
2022-10-25T15:44:10.614Z,2.30
2022-10-25T15:46:38.487Z,1.63
2022-10-25T15:49:08.583Z,2.20
2022-10-25T15:51:38.885Z,2.42
2022-10-25T15:54:06.616Z,3.67
2022-10-25T15:56:34.302Z,4.43
2022-10-25T15:59:02.871Z,4.20
2022-10-25T16:01:31.786Z,3.13
2022-10-25T16:03:59.313Z,2.47
2022-10-25T16:06:26.819Z,2.72
2022-10-25T16:08:54.285Z,2.90
2022-10-25T16:11:22.632Z,3.20
2022-10-25T16:13:55.311Z,1.60
2022-10-25T16:16:40.819Z,1.73
2022-10-25T16:19:16.046Z,1.50
2022-10-25T16:21:43.607Z,1.58
2022-10-25T16:24:11.699Z,1.50
2022-10-25T16:26:43.849Z,1.83
2022-10-25T16:29:15.797Z,2.28
2022-10-25T16:31:47.127Z,1.83
2022-10-25T16:34:17.552Z,3.97
2022-10-25T16:36:45.466Z,2.03
2022-10-25T16:39:13.568Z,2.10
2022-10-25T16:41:42.431Z,2.08
2022-10-25T16:44:11.681Z,2.45
2022-10-25T16:46:39.664Z,2.60
2022-10-25T16:49:09.332Z,4.38
2022-10-25T16:51:36.836Z,4.13
2022-10-25T16:54:04.867Z,4.35
2022-10-25T16:56:32.612Z,4.03
2022-10-25T16:59:00.936Z,5.32
2022-10-25T17:01:29.573Z,4.25
2022-10-25T17:03:57.096Z,4.03
2022-10-25T17:09:12.102Z,3.85
2022-10-25T17:11:39.513Z,3.22
2022-10-25T17:14:09.864Z,3.60
2022-10-25T17:16:37.480Z,2.80
2022-10-25T17:19:05.014Z,2.90
2022-10-25T17:21:33.478Z,2.60
2022-10-25T17:24:00.970Z,2.80
2022-10-25T17:26:28.573Z,2.38
2022-10-25T17:28:56.033Z,2.00
2022-10-25T17:31:23.457Z,2.00
2022-10-25T17:33:50.997Z,2.05
2022-10-25T17:36:19.164Z,1.70
2022-10-25T17:38:46.856Z,2.30
2022-10-25T17:41:14.995Z,1.88
2022-10-25T17:43:42.695Z,2.60
2022-10-25T17:46:11.447Z,2.50
2022-10-25T17:48:38.883Z,2.97
2022-10-25T17:51:07.873Z,2.72
2022-10-25T17:53:35.818Z,2.13
2022-10-25T17:56:13.060Z,2.13
2022-10-25T17:58:44.854Z,2.00
2022-10-25T18:01:13.705Z,1.48
2022-10-25T18:03:41.510Z,1.80
2022-10-25T18:06:10.381Z,2.13
2022-10-25T18:08:38.377Z,1.90
2022-10-25T18:11:12.566Z,2.40
2022-10-25T18:13:41.934Z,2.45
2022-10-25T18:16:10.292Z,2.22
2022-10-25T18:18:38.826Z,2.33
2022-10-25T18:21:10.748Z,3.70
2022-10-25T18:23:38.778Z,3.60
2022-10-25T18:26:06.841Z,3.47
2022-10-25T18:28:34.652Z,2.08
2022-10-25T18:31:02.989Z,2.70
2022-10-25T18:33:31.085Z,2.55
2022-10-25T18:36:03.218Z,3.00
2022-10-25T18:38:31.012Z,3.55
2022-10-25T18:40:58.416Z,3.03
2022-10-25T18:43:26.385Z,2.47
2022-10-25T18:45:57.343Z,2.47
2022-10-25T18:48:25.055Z,2.75
2022-10-25T18:50:52.656Z,3.08
2022-10-25T18:53:20.767Z,2.28
2022-10-25T18:55:48.997Z,2.10
2022-10-25T18:58:16.439Z,2.60
2022-10-25T19:00:44.621Z,2.50
2022-10-25T19:03:13.081Z,2.20
2022-10-25T19:05:40.758Z,2.15
2022-10-25T19:08:09.061Z,1.88
2022-10-25T19:10:40.164Z,2.42
2022-10-25T19:13:08.366Z,1.50
2022-10-25T19:15:39.321Z,1.83
2022-10-25T19:18:06.914Z,1.98
2022-10-25T19:20:34.368Z,1.80
2022-10-25T19:23:01.772Z,2.47
2022-10-25T19:25:29.912Z,2.35
2022-10-25T19:27:57.937Z,2.40
2022-10-25T19:30:25.866Z,3.15
2022-10-25T19:32:53.578Z,2.35
2022-10-25T19:35:22.075Z,2.40
2022-10-25T19:37:49.924Z,3.13
2022-10-25T19:40:17.825Z,3.17
2022-10-25T19:42:45.305Z,2.80
2022-10-25T19:45:12.953Z,2.58
2022-10-25T19:47:41.031Z,2.55
2022-10-25T19:50:09.018Z,3.03
2022-10-25T19:52:37.660Z,2.65
2022-10-25T19:55:06.632Z,3.03
2022-10-25T19:57:35.130Z,3.58
2022-10-25T20:00:06.012Z,3.35
2022-10-25T20:02:35.309Z,3.42
2022-10-25T20:05:03.212Z,3.53
2022-10-25T20:07:30.683Z,3.25
2022-10-25T20:09:58.306Z,2.72
2022-10-25T20:12:25.640Z,2.70
2022-10-25T20:14:53.062Z,2.90
2022-10-25T20:17:20.589Z,2.50
2022-10-25T20:19:48.049Z,2.53
2022-10-25T20:22:16.392Z,2.60
2022-10-25T20:24:43.791Z,2.97
2022-10-25T20:27:12.177Z,2.70
2022-10-25T20:29:40.463Z,2.85
2022-10-25T20:32:07.903Z,2.97
2022-10-25T20:34:37.560Z,2.50
2022-10-25T20:37:05.377Z,2.80
2022-10-25T20:39:32.787Z,3.05
2022-10-25T20:42:00.326Z,2.80
2022-10-25T20:44:27.816Z,3.03
2022-10-25T20:46:55.226Z,2.75
2022-10-25T20:49:22.921Z,3.47
2022-10-25T20:51:50.437Z,3.22
2022-10-25T20:54:17.893Z,2.90
2022-10-25T20:56:45.434Z,3.08
2022-10-25T20:59:12.934Z,3.33
2022-10-25T21:01:40.427Z,2.85
2022-10-25T21:04:09.848Z,2.83
2022-10-25T21:06:37.254Z,3.03
2022-10-25T21:09:04.680Z,3.75
2022-10-25T21:11:32.906Z,2.42
2022-10-25T21:14:00.310Z,2.38
2022-10-25T21:16:27.768Z,2.80
2022-10-25T21:18:55.171Z,2.88
2022-10-25T21:21:22.561Z,2.58
2022-10-25T21:23:54.886Z,2.63
2022-10-25T21:26:22.280Z,2.53
2022-10-25T21:28:49.693Z,3.10
2022-10-25T21:31:17.487Z,2.65
2022-10-25T21:33:50.182Z,2.88
2022-10-25T21:36:19.651Z,2.80
2022-10-25T21:38:47.532Z,2.55
2022-10-25T21:41:16.204Z,2.75
2022-10-25T21:43:45.039Z,2.67
2022-10-25T21:46:12.892Z,2.42
2022-10-25T21:48:40.331Z,2.40
2022-10-25T21:51:07.964Z,2.65
2022-10-25T21:53:35.325Z,2.30
2022-10-25T21:56:13.263Z,2.70
2022-10-25T21:58:44.484Z,2.70
2022-10-25T22:01:12.781Z,2.33
2022-10-25T22:03:40.657Z,2.70
2022-10-25T22:06:08.497Z,2.70
2022-10-25T22:08:36.266Z,3.40
2022-10-25T22:11:05.788Z,4.35
2022-10-25T22:13:33.204Z,2.67
2022-10-25T22:16:02.214Z,2.95
2022-10-25T22:18:29.840Z,3.03
2022-10-25T22:20:58.704Z,2.92
2022-10-25T22:23:27.328Z,3.10
2022-10-25T22:25:54.842Z,3.00
2022-10-25T22:28:22.328Z,3.10
2022-10-25T22:30:49.889Z,2.58
2022-10-25T22:33:17.295Z,2.33
2022-10-25T22:35:45.106Z,2.33
2022-10-25T22:38:12.466Z,2.55
2022-10-25T22:40:40.098Z,2.00
2022-10-25T22:43:07.627Z,2.50
2022-10-25T22:45:35.874Z,2.83
2022-10-25T22:48:03.356Z,2.78
2022-10-25T22:50:30.982Z,2.50
2022-10-25T22:52:58.472Z,3.88
2022-10-25T22:55:25.913Z,2.78
2022-10-25T22:57:56.135Z,3.42
2022-10-25T23:00:23.614Z,2.53
2022-10-25T23:02:51.508Z,3.13
2022-10-25T23:05:19.049Z,3.10
2022-10-25T23:07:46.669Z,2.60
2022-10-25T23:10:14.834Z,2.78
2022-10-25T23:12:42.236Z,3.05
2022-10-25T23:15:09.757Z,2.80
2022-10-25T23:17:37.230Z,3.15
2022-10-25T23:20:04.896Z,2.20
2022-10-25T23:22:32.271Z,2.50
2022-10-25T23:24:59.698Z,2.28
2022-10-25T23:27:29.219Z,2.40
2022-10-25T23:29:58.689Z,2.92
2022-10-25T23:32:26.088Z,3.22
2022-10-25T23:34:56.285Z,2.88
2022-10-25T23:37:24.524Z,2.40
2022-10-25T23:39:55.125Z,2.45
2022-10-25T23:42:22.731Z,2.25
2022-10-25T23:44:50.222Z,2.28
2022-10-25T23:47:17.755Z,2.08
2022-10-25T23:49:45.220Z,2.33
2022-10-25T23:52:12.617Z,2.60
2022-10-25T23:54:40.120Z,2.70
2022-10-25T23:57:07.544Z,2.90
2022-10-25T23:59:34.912Z,3.92
